sensor_id;sensor_type;location;lat;lon;timestamp;temperature;humidity
21267;DHT22;10791;53.108;18.326;2023-09-07T00:01:10;16.20;99.90
21267;DHT22;10791;53.108;18.326;2023-09-07T00:06:14;16.20;99.90
21267;DHT22;10791;53.108;18.326;2023-09-07T00:11:18;16.10;99.90
21267;DHT22;10791;53.108;18.326;2023-09-07T00:16:21;16.10;99.90
21267;DHT22;10791;53.108;18.326;2023-09-07T00:21:24;16.20;99.90
21267;DHT22;10791;53.108;18.326;2023-09-07T00:26:27;16.10;99.90
21267;DHT22;10791;53.108;18.326;2023-09-07T00:31:31;16.10;99.90
21267;DHT22;10791;53.108;18.326;2023-09-07T00:36:34;16.10;99.90
21267;DHT22;10791;53.108;18.326;2023-09-07T00:41:38;16.10;99.90
21267;DHT22;10791;53.108;18.326;2023-09-07T00:46:42;16.10;99.90
21267;DHT22;10791;53.108;18.326;2023-09-07T00:51:47;16.00;99.90
21267;DHT22;10791;53.108;18.326;2023-09-07T00:56:50;15.90;99.90
21267;DHT22;10791;53.108;18.326;2023-09-07T01:01:54;15.90;99.90
21267;DHT22;10791;53.108;18.326;2023-09-07T01:07:02;15.90;99.90
21267;DHT22;10791;53.108;18.326;2023-09-07T01:12:07;15.80;99.90
21267;DHT22;10791;53.108;18.326;2023-09-07T01:17:14;15.80;99.90
21267;DHT22;10791;53.108;18.326;2023-09-07T01:22:20;15.80;99.90
21267;DHT22;10791;53.108;18.326;2023-09-07T01:27:27;15.80;99.90
21267;DHT22;10791;53.108;18.326;2023-09-07T01:32:30;15.80;99.90
21267;DHT22;10791;53.108;18.326;2023-09-07T01:37:33;15.70;99.90
21267;DHT22;10791;53.108;18.326;2023-09-07T01:42:37;15.70;99.90
21267;DHT22;10791;53.108;18.326;2023-09-07T01:47:40;15.70;99.90
21267;DHT22;10791;53.108;18.326;2023-09-07T01:52:49;15.60;99.90
21267;DHT22;10791;53.108;18.326;2023-09-07T01:57:52;15.50;99.90
21267;DHT22;10791;53.108;18.326;2023-09-07T02:02:55;15.50;99.90
21267;DHT22;10791;53.108;18.326;2023-09-07T02:07:59;15.50;99.90
21267;DHT22;10791;53.108;18.326;2023-09-07T02:13:03;15.50;99.90
21267;DHT22;10791;53.108;18.326;2023-09-07T02:18:06;15.50;99.90
21267;DHT22;10791;53.108;18.326;2023-09-07T02:23:10;15.40;99.90
21267;DHT22;10791;53.108;18.326;2023-09-07T02:28:13;15.50;99.90
21267;DHT22;10791;53.108;18.326;2023-09-07T02:33:16;15.40;99.90
21267;DHT22;10791;53.108;18.326;2023-09-07T02:38:20;15.40;99.90
21267;DHT22;10791;53.108;18.326;2023-09-07T02:43:23;15.30;99.90
21267;DHT22;10791;53.108;18.326;2023-09-07T02:48:27;15.30;99.90
21267;DHT22;10791;53.108;18.326;2023-09-07T02:53:30;15.20;99.90
21267;DHT22;10791;53.108;18.326;2023-09-07T02:58:34;15.10;99.90
21267;DHT22;10791;53.108;18.326;2023-09-07T03:03:38;15.00;99.90
21267;DHT22;10791;53.108;18.326;2023-09-07T03:08:44;15.00;99.90
21267;DHT22;10791;53.108;18.326;2023-09-07T03:13:48;15.00;99.90
21267;DHT22;10791;53.108;18.326;2023-09-07T03:18:51;14.90;99.90
21267;DHT22;10791;53.108;18.326;2023-09-07T03:23:56;14.90;99.90
21267;DHT22;10791;53.108;18.326;2023-09-07T03:28:59;14.80;99.90
21267;DHT22;10791;53.108;18.326;2023-09-07T03:34:02;14.80;99.90
21267;DHT22;10791;53.108;18.326;2023-09-07T03:39:05;14.80;99.90
21267;DHT22;10791;53.108;18.326;2023-09-07T03:44:11;14.70;99.90
21267;DHT22;10791;53.108;18.326;2023-09-07T03:49:14;14.70;99.90
21267;DHT22;10791;53.108;18.326;2023-09-07T03:54:17;14.70;99.90
21267;DHT22;10791;53.108;18.326;2023-09-07T03:59:21;14.70;99.90
21267;DHT22;10791;53.108;18.326;2023-09-07T04:04:52;14.70;99.90
21267;DHT22;10791;53.108;18.326;2023-09-07T04:09:56;14.80;99.90
21267;DHT22;10791;53.108;18.326;2023-09-07T04:15:01;14.80;99.90
21267;DHT22;10791;53.108;18.326;2023-09-07T04:20:09;14.80;99.90
21267;DHT22;10791;53.108;18.326;2023-09-07T04:25:14;14.90;99.90
21267;DHT22;10791;53.108;18.326;2023-09-07T04:30:17;15.00;99.90
21267;DHT22;10791;53.108;18.326;2023-09-07T04:35:21;15.00;99.90
21267;DHT22;10791;53.108;18.326;2023-09-07T04:40:25;15.10;99.90
21267;DHT22;10791;53.108;18.326;2023-09-07T04:45:28;15.20;99.90
21267;DHT22;10791;53.108;18.326;2023-09-07T04:50:31;15.20;99.90
21267;DHT22;10791;53.108;18.326;2023-09-07T04:55:37;15.30;99.90
21267;DHT22;10791;53.108;18.326;2023-09-07T05:00:41;15.30;99.90
21267;DHT22;10791;53.108;18.326;2023-09-07T05:05:45;15.40;99.90
21267;DHT22;10791;53.108;18.326;2023-09-07T05:10:58;15.50;99.90
21267;DHT22;10791;53.108;18.326;2023-09-07T05:16:02;15.50;99.90
21267;DHT22;10791;53.108;18.326;2023-09-07T05:21:14;15.50;99.90
21267;DHT22;10791;53.108;18.326;2023-09-07T05:26:22;15.60;99.90
21267;DHT22;10791;53.108;18.326;2023-09-07T05:31:28;15.60;99.90
21267;DHT22;10791;53.108;18.326;2023-09-07T05:36:31;15.60;99.90
21267;DHT22;10791;53.108;18.326;2023-09-07T05:41:35;15.70;99.90
21267;DHT22;10791;53.108;18.326;2023-09-07T05:46:39;15.80;99.90
21267;DHT22;10791;53.108;18.326;2023-09-07T05:51:42;15.90;99.90
21267;DHT22;10791;53.108;18.326;2023-09-07T05:56:49;15.90;99.90
21267;DHT22;10791;53.108;18.326;2023-09-07T06:01:52;15.90;99.90
21267;DHT22;10791;53.108;18.326;2023-09-07T06:06:56;15.90;99.90
21267;DHT22;10791;53.108;18.326;2023-09-07T06:12:00;15.90;99.90
21267;DHT22;10791;53.108;18.326;2023-09-07T06:17:03;16.00;99.90
21267;DHT22;10791;53.108;18.326;2023-09-07T06:22:06;16.00;99.90
21267;DHT22;10791;53.108;18.326;2023-09-07T06:27:10;16.10;99.90
21267;DHT22;10791;53.108;18.326;2023-09-07T06:32:13;16.30;99.90
21267;DHT22;10791;53.108;18.326;2023-09-07T06:37:17;16.20;99.90
21267;DHT22;10791;53.108;18.326;2023-09-07T06:42:20;16.20;99.90
21267;DHT22;10791;53.108;18.326;2023-09-07T06:47:24;16.40;99.90
21267;DHT22;10791;53.108;18.326;2023-09-07T06:52:27;16.60;99.90
21267;DHT22;10791;53.108;18.326;2023-09-07T06:57:31;16.70;99.90
21267;DHT22;10791;53.108;18.326;2023-09-07T07:02:34;17.00;99.90
21267;DHT22;10791;53.108;18.326;2023-09-07T07:07:39;17.20;99.90
21267;DHT22;10791;53.108;18.326;2023-09-07T07:12:42;17.30;99.90
21267;DHT22;10791;53.108;18.326;2023-09-07T07:17:46;17.40;99.90
21267;DHT22;10791;53.108;18.326;2023-09-07T07:22:50;17.50;99.90
21267;DHT22;10791;53.108;18.326;2023-09-07T07:27:53;17.70;99.90
21267;DHT22;10791;53.108;18.326;2023-09-07T07:32:56;18.00;99.90
21267;DHT22;10791;53.108;18.326;2023-09-07T07:38:00;18.20;99.90
21267;DHT22;10791;53.108;18.326;2023-09-07T07:43:03;18.50;99.90
21267;DHT22;10791;53.108;18.326;2023-09-07T07:48:07;18.80;99.90
21267;DHT22;10791;53.108;18.326;2023-09-07T07:53:14;19.00;99.90
21267;DHT22;10791;53.108;18.326;2023-09-07T07:58:18;19.30;99.90
21267;DHT22;10791;53.108;18.326;2023-09-07T08:03:21;19.50;99.90
21267;DHT22;10791;53.108;18.326;2023-09-07T08:08:25;19.70;99.90
21267;DHT22;10791;53.108;18.326;2023-09-07T08:13:28;19.80;99.90
21267;DHT22;10791;53.108;18.326;2023-09-07T08:18:33;20.00;99.90
21267;DHT22;10791;53.108;18.326;2023-09-07T08:23:38;20.20;99.90
21267;DHT22;10791;53.108;18.326;2023-09-07T08:28:41;20.30;99.90
21267;DHT22;10791;53.108;18.326;2023-09-07T08:33:44;20.60;99.90
21267;DHT22;10791;53.108;18.326;2023-09-07T08:38:49;21.00;99.90
21267;DHT22;10791;53.108;18.326;2023-09-07T08:43:54;21.20;99.90
21267;DHT22;10791;53.108;18.326;2023-09-07T08:48:59;21.40;99.90
21267;DHT22;10791;53.108;18.326;2023-09-07T08:54:07;21.70;99.90
21267;DHT22;10791;53.108;18.326;2023-09-07T08:59:12;21.90;99.90
21267;DHT22;10791;53.108;18.326;2023-09-07T09:04:16;22.10;99.90
21267;DHT22;10791;53.108;18.326;2023-09-07T09:09:24;22.50;99.90
21267;DHT22;10791;53.108;18.326;2023-09-07T09:14:30;22.70;99.90
21267;DHT22;10791;53.108;18.326;2023-09-07T09:19:35;23.00;99.90
21267;DHT22;10791;53.108;18.326;2023-09-07T09:24:38;23.20;99.90
21267;DHT22;10791;53.108;18.326;2023-09-07T09:29:42;23.30;99.90
21267;DHT22;10791;53.108;18.326;2023-09-07T09:34:45;23.40;99.90
21267;DHT22;10791;53.108;18.326;2023-09-07T09:39:50;23.60;99.90
21267;DHT22;10791;53.108;18.326;2023-09-07T09:44:57;23.80;99.90
21267;DHT22;10791;53.108;18.326;2023-09-07T09:50:02;24.00;99.90
21267;DHT22;10791;53.108;18.326;2023-09-07T09:55:09;24.10;99.90
21267;DHT22;10791;53.108;18.326;2023-09-07T10:00:16;24.30;99.90
21267;DHT22;10791;53.108;18.326;2023-09-07T10:05:20;24.50;99.90
21267;DHT22;10791;53.108;18.326;2023-09-07T10:10:33;24.80;99.90
21267;DHT22;10791;53.108;18.326;2023-09-07T10:15:38;25.00;99.90
21267;DHT22;10791;53.108;18.326;2023-09-07T10:20:57;25.20;99.90
21267;DHT22;10791;53.108;18.326;2023-09-07T10:26:03;25.40;99.90
21267;DHT22;10791;53.108;18.326;2023-09-07T10:31:14;25.60;99.90
21267;DHT22;10791;53.108;18.326;2023-09-07T10:36:22;25.60;99.90
21267;DHT22;10791;53.108;18.326;2023-09-07T10:41:25;25.70;99.90
21267;DHT22;10791;53.108;18.326;2023-09-07T10:46:29;25.90;99.90
21267;DHT22;10791;53.108;18.326;2023-09-07T10:51:32;25.90;99.90
21267;DHT22;10791;53.108;18.326;2023-09-07T10:56:36;26.10;99.90
21267;DHT22;10791;53.108;18.326;2023-09-07T11:01:40;26.50;99.90
21267;DHT22;10791;53.108;18.326;2023-09-07T11:06:44;26.60;99.90
21267;DHT22;10791;53.108;18.326;2023-09-07T11:11:48;26.90;99.90
21267;DHT22;10791;53.108;18.326;2023-09-07T11:16:55;27.00;99.00
21267;DHT22;10791;53.108;18.326;2023-09-07T11:21:59;27.30;97.40
21267;DHT22;10791;53.108;18.326;2023-09-07T11:27:03;27.30;97.30
21267;DHT22;10791;53.108;18.326;2023-09-07T11:32:08;27.30;96.20
21267;DHT22;10791;53.108;18.326;2023-09-07T11:37:12;27.40;94.70
21267;DHT22;10791;53.108;18.326;2023-09-07T11:42:16;27.70;94.50
21267;DHT22;10791;53.108;18.326;2023-09-07T11:47:19;28.20;93.30
21267;DHT22;10791;53.108;18.326;2023-09-07T11:52:23;28.00;92.40
21267;DHT22;10791;53.108;18.326;2023-09-07T11:57:26;27.80;92.60
21267;DHT22;10791;53.108;18.326;2023-09-07T12:02:30;28.00;92.20
21267;DHT22;10791;53.108;18.326;2023-09-07T12:07:34;28.00;90.80
21267;DHT22;10791;53.108;18.326;2023-09-07T12:12:38;27.90;91.00
21267;DHT22;10791;53.108;18.326;2023-09-07T12:17:41;27.90;89.70
21267;DHT22;10791;53.108;18.326;2023-09-07T12:22:45;28.00;90.90
21267;DHT22;10791;53.108;18.326;2023-09-07T12:27:48;28.20;90.00
21267;DHT22;10791;53.108;18.326;2023-09-07T12:32:56;28.20;85.90
21267;DHT22;10791;53.108;18.326;2023-09-07T12:37:59;28.40;84.10
21267;DHT22;10791;53.108;18.326;2023-09-07T12:43:03;28.60;85.00
21267;DHT22;10791;53.108;18.326;2023-09-07T12:48:06;28.80;85.70
21267;DHT22;10791;53.108;18.326;2023-09-07T12:53:10;29.30;83.40
21267;DHT22;10791;53.108;18.326;2023-09-07T12:58:13;29.60;80.60
21267;DHT22;10791;53.108;18.326;2023-09-07T13:03:17;29.50;83.20
21267;DHT22;10791;53.108;18.326;2023-09-07T13:08:20;29.30;82.00
21267;DHT22;10791;53.108;18.326;2023-09-07T13:13:23;28.80;81.50
21267;DHT22;10791;53.108;18.326;2023-09-07T13:18:32;28.50;83.60
21267;DHT22;10791;53.108;18.326;2023-09-07T13:23:35;27.90;84.20
21267;DHT22;10791;53.108;18.326;2023-09-07T13:28:38;27.60;85.20
21267;DHT22;10791;53.108;18.326;2023-09-07T13:33:42;27.70;83.30
21267;DHT22;10791;53.108;18.326;2023-09-07T13:38:45;28.00;80.20
21267;DHT22;10791;53.108;18.326;2023-09-07T13:43:48;28.50;81.80
21267;DHT22;10791;53.108;18.326;2023-09-07T13:48:51;29.10;81.10
21267;DHT22;10791;53.108;18.326;2023-09-07T13:53:55;29.40;79.20
21267;DHT22;10791;53.108;18.326;2023-09-07T13:58:59;29.80;79.90
21267;DHT22;10791;53.108;18.326;2023-09-07T14:04:03;29.90;76.40
21267;DHT22;10791;53.108;18.326;2023-09-07T14:09:06;29.40;77.90
21267;DHT22;10791;53.108;18.326;2023-09-07T14:14:10;28.90;79.10
21267;DHT22;10791;53.108;18.326;2023-09-07T14:19:14;28.80;77.10
21267;DHT22;10791;53.108;18.326;2023-09-07T14:24:17;29.00;78.00
21267;DHT22;10791;53.108;18.326;2023-09-07T14:29:20;29.40;75.20
21267;DHT22;10791;53.108;18.326;2023-09-07T14:34:24;29.40;74.80
21267;DHT22;10791;53.108;18.326;2023-09-07T14:39:29;29.30;75.10
21267;DHT22;10791;53.108;18.326;2023-09-07T14:44:32;29.30;74.90
21267;DHT22;10791;53.108;18.326;2023-09-07T14:49:35;29.60;73.60
21267;DHT22;10791;53.108;18.326;2023-09-07T14:54:40;29.80;72.50
21267;DHT22;10791;53.108;18.326;2023-09-07T14:59:44;29.90;74.90
21267;DHT22;10791;53.108;18.326;2023-09-07T15:04:48;29.90;74.30
21267;DHT22;10791;53.108;18.326;2023-09-07T15:09:52;29.90;74.00
21267;DHT22;10791;53.108;18.326;2023-09-07T15:14:56;29.30;75.00
21267;DHT22;10791;53.108;18.326;2023-09-07T15:19:59;28.70;76.80
21267;DHT22;10791;53.108;18.326;2023-09-07T15:25:03;28.30;77.30
21267;DHT22;10791;53.108;18.326;2023-09-07T15:30:08;28.40;78.20
21267;DHT22;10791;53.108;18.326;2023-09-07T15:35:12;28.40;78.20
21267;DHT22;10791;53.108;18.326;2023-09-07T15:40:16;28.30;76.20
21267;DHT22;10791;53.108;18.326;2023-09-07T15:45:19;28.70;77.40
21267;DHT22;10791;53.108;18.326;2023-09-07T15:50:23;28.90;77.00
21267;DHT22;10791;53.108;18.326;2023-09-07T15:55:27;29.00;77.00
21267;DHT22;10791;53.108;18.326;2023-09-07T16:00:33;29.00;77.50
21267;DHT22;10791;53.108;18.326;2023-09-07T16:05:37;29.00;76.90
21267;DHT22;10791;53.108;18.326;2023-09-07T16:10:42;29.00;78.30
21267;DHT22;10791;53.108;18.326;2023-09-07T16:15:46;29.10;78.10
21267;DHT22;10791;53.108;18.326;2023-09-07T16:20:50;28.80;79.90
21267;DHT22;10791;53.108;18.326;2023-09-07T16:25:53;28.10;79.90
21267;DHT22;10791;53.108;18.326;2023-09-07T16:30:58;27.30;82.80
21267;DHT22;10791;53.108;18.326;2023-09-07T16:36:01;26.80;85.40
21267;DHT22;10791;53.108;18.326;2023-09-07T16:41:06;26.60;87.80
21267;DHT22;10791;53.108;18.326;2023-09-07T16:46:10;26.50;88.50
21267;DHT22;10791;53.108;18.326;2023-09-07T16:51:13;26.30;89.90
21267;DHT22;10791;53.108;18.326;2023-09-07T16:56:17;26.10;90.60
21267;DHT22;10791;53.108;18.326;2023-09-07T17:01:24;25.70;91.50
21267;DHT22;10791;53.108;18.326;2023-09-07T17:06:28;25.50;92.80
21267;DHT22;10791;53.108;18.326;2023-09-07T17:11:32;25.20;93.70
21267;DHT22;10791;53.108;18.326;2023-09-07T17:16:38;25.00;94.30
21267;DHT22;10791;53.108;18.326;2023-09-07T17:21:42;24.70;95.70
21267;DHT22;10791;53.108;18.326;2023-09-07T17:26:45;24.40;97.80
21267;DHT22;10791;53.108;18.326;2023-09-07T17:31:50;24.00;99.90
21267;DHT22;10791;53.108;18.326;2023-09-07T17:36:54;23.70;99.90
21267;DHT22;10791;53.108;18.326;2023-09-07T17:41:57;23.40;99.90
21267;DHT22;10791;53.108;18.326;2023-09-07T17:47:01;23.20;99.90
21267;DHT22;10791;53.108;18.326;2023-09-07T17:52:06;23.00;99.90
21267;DHT22;10791;53.108;18.326;2023-09-07T17:57:09;22.80;99.90
21267;DHT22;10791;53.108;18.326;2023-09-07T18:02:20;22.60;99.90
21267;DHT22;10791;53.108;18.326;2023-09-07T18:07:25;22.40;99.90
21267;DHT22;10791;53.108;18.326;2023-09-07T18:12:29;22.30;99.90
21267;DHT22;10791;53.108;18.326;2023-09-07T18:17:33;22.10;99.90
21267;DHT22;10791;53.108;18.326;2023-09-07T18:22:40;21.90;99.90
21267;DHT22;10791;53.108;18.326;2023-09-07T18:27:43;21.80;99.90
21267;DHT22;10791;53.108;18.326;2023-09-07T18:32:47;21.60;99.90
21267;DHT22;10791;53.108;18.326;2023-09-07T18:37:54;21.40;99.90
21267;DHT22;10791;53.108;18.326;2023-09-07T18:42:58;21.30;99.90
21267;DHT22;10791;53.108;18.326;2023-09-07T18:48:03;21.10;99.90
21267;DHT22;10791;53.108;18.326;2023-09-07T18:53:07;21.00;99.90
21267;DHT22;10791;53.108;18.326;2023-09-07T18:58:13;20.80;99.90
21267;DHT22;10791;53.108;18.326;2023-09-07T19:03:16;20.70;99.90
21267;DHT22;10791;53.108;18.326;2023-09-07T19:08:21;20.60;99.90
21267;DHT22;10791;53.108;18.326;2023-09-07T19:13:27;20.40;99.90
21267;DHT22;10791;53.108;18.326;2023-09-07T19:18:31;20.30;99.90
21267;DHT22;10791;53.108;18.326;2023-09-07T19:23:36;20.20;99.90
21267;DHT22;10791;53.108;18.326;2023-09-07T19:28:46;20.00;99.90
21267;DHT22;10791;53.108;18.326;2023-09-07T19:33:54;19.90;99.90
21267;DHT22;10791;53.108;18.326;2023-09-07T19:38:59;19.80;99.90
21267;DHT22;10791;53.108;18.326;2023-09-07T19:44:04;19.70;99.90
21267;DHT22;10791;53.108;18.326;2023-09-07T19:49:09;19.60;99.90
21267;DHT22;10791;53.108;18.326;2023-09-07T19:54:14;19.50;99.90
21267;DHT22;10791;53.108;18.326;2023-09-07T19:59:18;19.40;99.90
21267;DHT22;10791;53.108;18.326;2023-09-07T20:04:24;19.20;99.90
21267;DHT22;10791;53.108;18.326;2023-09-07T20:09:29;19.20;99.90
21267;DHT22;10791;53.108;18.326;2023-09-07T20:14:34;19.10;99.90
21267;DHT22;10791;53.108;18.326;2023-09-07T20:19:41;19.00;99.90
21267;DHT22;10791;53.108;18.326;2023-09-07T20:24:46;19.00;99.90
21267;DHT22;10791;53.108;18.326;2023-09-07T20:29:51;18.90;99.90
21267;DHT22;10791;53.108;18.326;2023-09-07T20:34:56;18.90;99.90
21267;DHT22;10791;53.108;18.326;2023-09-07T20:40:01;18.80;99.90
21267;DHT22;10791;53.108;18.326;2023-09-07T20:45:06;18.70;99.90
21267;DHT22;10791;53.108;18.326;2023-09-07T20:50:10;18.60;99.90
21267;DHT22;10791;53.108;18.326;2023-09-07T20:55:13;18.50;99.90
21267;DHT22;10791;53.108;18.326;2023-09-07T21:00:17;18.40;99.90
21267;DHT22;10791;53.108;18.326;2023-09-07T21:05:21;18.30;99.90
21267;DHT22;10791;53.108;18.326;2023-09-07T21:10:24;18.20;99.90
21267;DHT22;10791;53.108;18.326;2023-09-07T21:15:27;18.10;99.90
21267;DHT22;10791;53.108;18.326;2023-09-07T21:20:31;18.10;99.90
21267;DHT22;10791;53.108;18.326;2023-09-07T21:25:34;18.00;99.90
21267;DHT22;10791;53.108;18.326;2023-09-07T21:30:37;17.90;99.90
21267;DHT22;10791;53.108;18.326;2023-09-07T21:35:40;17.90;99.90
21267;DHT22;10791;53.108;18.326;2023-09-07T21:40:44;17.80;99.90
21267;DHT22;10791;53.108;18.326;2023-09-07T21:45:47;17.80;99.90
21267;DHT22;10791;53.108;18.326;2023-09-07T21:50:51;17.70;99.90
21267;DHT22;10791;53.108;18.326;2023-09-07T21:55:55;17.60;99.90
21267;DHT22;10791;53.108;18.326;2023-09-07T22:00:58;17.60;99.90
21267;DHT22;10791;53.108;18.326;2023-09-07T22:06:02;17.50;99.90
21267;DHT22;10791;53.108;18.326;2023-09-07T22:11:05;17.40;99.90
21267;DHT22;10791;53.108;18.326;2023-09-07T22:16:09;17.40;99.90
21267;DHT22;10791;53.108;18.326;2023-09-07T22:21:12;17.30;99.90
21267;DHT22;10791;53.108;18.326;2023-09-07T22:26:15;17.20;99.90
21267;DHT22;10791;53.108;18.326;2023-09-07T22:31:18;17.10;99.90
21267;DHT22;10791;53.108;18.326;2023-09-07T22:36:22;17.00;99.90
21267;DHT22;10791;53.108;18.326;2023-09-07T22:41:25;17.00;99.90
21267;DHT22;10791;53.108;18.326;2023-09-07T22:46:28;16.90;99.90
21267;DHT22;10791;53.108;18.326;2023-09-07T22:51:32;16.80;99.90
21267;DHT22;10791;53.108;18.326;2023-09-07T22:56:35;16.70;99.90
21267;DHT22;10791;53.108;18.326;2023-09-07T23:01:39;16.60;99.90
21267;DHT22;10791;53.108;18.326;2023-09-07T23:06:42;16.40;99.90
21267;DHT22;10791;53.108;18.326;2023-09-07T23:11:45;16.40;99.90
21267;DHT22;10791;53.108;18.326;2023-09-07T23:16:48;16.30;99.90
21267;DHT22;10791;53.108;18.326;2023-09-07T23:21:54;16.20;99.90
21267;DHT22;10791;53.108;18.326;2023-09-07T23:26:58;16.10;99.90
21267;DHT22;10791;53.108;18.326;2023-09-07T23:32:01;16.00;99.90
21267;DHT22;10791;53.108;18.326;2023-09-07T23:37:05;15.90;99.90
21267;DHT22;10791;53.108;18.326;2023-09-07T23:42:09;15.90;99.90
21267;DHT22;10791;53.108;18.326;2023-09-07T23:47:12;15.90;99.90
21267;DHT22;10791;53.108;18.326;2023-09-07T23:52:16;15.80;99.90
21267;DHT22;10791;53.108;18.326;2023-09-07T23:57:20;15.70;99.90
